Latest Weather Observations for Avalon

IDV60801

Issued at 10:31 pm EST Thursday 2 July 2015 (issued every 30 minutes, with the page automatically refreshed every 10 minutes)

About weather observations | Map of weather stations | Latest weather observations for VIC | Other Formats
Station Details ID: 087113 Name: AVALON AIRPORT Lat: -38.03 Lon: 144.48 Height: 10.6 m
Data from the previous 72 hours. | See also: Recent months at Avalon
Date/Time
EST
Temp
°C
App
Temp
°C
Dew
Point
Rel
Hum
%
Delta-T
°C
Wind Press
QNH
hPa
Press
MSL
hPa
Rain
since 9 am
mm
Dir
 
Spd
km/h
Gust
km/h
Spd
kts
Gust
kts
02/10:30pm 5.2 1.2 2.9 85 0.9 W 13 15 7 8 1028.7 1028.7 1.0
02/10:00pm 6.1 1.1 3.4 83 1.1 W 19 24 10 13 1028.5 1028.5 1.0
02/09:30pm 6.3 2.1 4.0 85 1.0 W 15 20 8 11 1028.4 1028.4 1.0
02/09:00pm 6.4 1.9 4.1 85 1.0 WNW 17 20 9 11 1028.2 1028.2 1.0
02/08:30pm 5.9 1.6 3.2 83 1.1 WNW 15 17 8 9 1028.1 1028.1 1.0
02/08:00pm 6.4 2.9 3.6 82 1.2 WNW 11 15 6 8 1028.0 1028.0 1.0
02/07:30pm 7.1 3.0 4.2 82 1.3 WSW 15 19 8 10 1028.0 1028.0 1.0
02/07:00pm 6.8 2.6 3.6 80 1.3 WNW 15 19 8 10 1027.4 1027.4 1.0
02/06:30pm 7.9 3.7 3.6 74 1.8 W 15 20 8 11 1027.1 1027.1 1.0
02/06:00pm 9.7 4.2 3.9 67 2.5 SW 22 28 12 15 1026.9 1026.9 1.0
02/05:30pm 8.9 3.9 3.7 70 2.3 SW 19 28 10 15 1026.8 1026.8 1.0
02/05:00pm 9.6 4.7 4.2 69 2.4 SW 19 28 10 15 1026.4 1026.4 1.0
02/04:30pm 10.3 5.5 5.5 72 2.2 SSW 20 26 11 14 1025.9 1025.9 1.0
02/04:00pm 11.9 6.0 3.7 57 3.6 SW 24 33 13 18 1025.6 1025.6 1.0
02/03:30pm 11.8 5.3 4.8 62 3.2 SW 28 37 15 20 1025.3 1025.3 1.0
02/03:00pm 11.8 4.4 3.8 58 3.5 SW 32 44 17 24 1024.9 1024.9 1.0
02/02:30pm 11.8 4.7 3.8 58 3.6 WSW 30 39 16 21 1024.9 1024.9 1.0
02/02:00pm 11.6 4.2 4.1 60 3.3 SW 32 41 17 22 1024.4 1024.4 1.0
02/01:30pm 11.3 3.3 3.8 60 3.3 SW 35 50 19 27 1024.3 1024.3 1.0
02/01:00pm 11.3 2.1 3.3 58 3.5 SW 41 50 22 27 1024.2 1024.2 1.0
02/12:30pm 11.7 3.4 4.0 59 3.4 SW 37 48 20 26 1023.8 1023.8 1.0
02/12:00pm 11.1 3.4 3.6 60 3.3 SW 33 46 18 25 1023.6 1023.6 1.0
02/11:38am 10.3 2.3 3.8 64 2.9 SW 35 57 19 31 1023.6 1023.6 1.0
02/11:30am 10.5 4.0 6.5 76 1.9 SW 30 44 16 24 1023.6 1023.6 1.0
02/11:19am 11.1 3.7 4.1 62 3.1 SW 32 52 17 28 1023.5 1023.5 1.0
02/11:00am 10.7 3.6 5.5 70 2.4 WSW 32 43 17 23 1023.5 1023.5 1.0
02/10:30am 9.9 3.2 5.5 74 2.0 W 30 41 16 22 1023.0 1023.0 1.0
02/10:00am 8.7 2.3 5.3 79 1.5 W 28 41 15 22 1022.6 1022.6 1.0
02/09:37am 8.5 1.2 5.4 81 1.4 WSW 33 54 18 29 1022.7 1022.7 1.0
02/09:30am 8.5 2.8 6.6 88 0.9 WSW 26 35 14 19 1022.4 1022.4 1.0
02/09:29am 8.5 2.8 6.6 88 0.9 WSW 26 35 14 19 1022.3 1022.3 1.0
02/09:03am 8.8 1.9 6.4 85 1.1 W 32 54 17 29 1021.8 1021.8 0.2
02/09:01am 9.1 3.0 6.4 83 1.2 W 28 48 15 26 1021.6 1021.6 0.0
02/09:00am 9.1 3.3 6.2 82 1.3 W 26 46 14 25 1021.5 1021.5 -
02/08:30am 9.1 2.9 6.2 82 1.3 WNW 28 41 15 22 1020.8 1020.8 -
02/08:00am 9.8 2.7 5.4 74 2.0 WNW 32 44 17 24 1020.4 1020.4 -
02/07:30am 8.9 2.9 5.3 78 1.6 WNW 26 32 14 17 1019.9 1019.9 -
02/07:00am 8.9 3.6 5.1 77 1.7 WNW 22 28 12 15 1019.7 1019.7 -
02/06:30am 9.6 5.0 6.3 80 1.5 WNW 20 26 11 14 1019.3 1019.3 -
02/06:00am 10.4 4.3 6.5 77 1.8 WNW 28 33 15 18 1019.3 1019.3 -
02/05:30am 10.9 5.8 7.6 80 1.6 W 24 33 13 18 1019.0 1019.0 -
02/05:00am 10.9 5.9 8.1 83 1.4 W 24 35 13 19 1018.9 1018.9 -
02/04:30am 11.4 5.8 8.8 84 1.3 WNW 28 37 15 20 1018.7 1018.7 -
02/04:00am 11.5 5.6 9.1 85 1.2 WNW 30 41 16 22 1018.5 1018.5 -
02/03:45am 11.6 4.4 9.2 85 1.2 WNW 37 56 20 30 1018.5 1018.5 -
02/03:30am 11.5 3.9 9.2 86 1.2 WNW 39 54 21 29 1018.4 1018.4 -
02/03:00am 12.7 5.3 8.4 75 2.1 WNW 37 54 20 29 1018.3 1018.3 0.0
02/02:51am 12.9 7.2 8.4 74 2.2 WNW 28 48 15 26 1018.2 1018.2 -
02/02:30am 12.9 6.8 8.2 73 2.3 NW 30 35 16 19 1018.4 1018.4 -
02/02:01am 13.1 6.5 7.8 70 2.6 NW 32 48 17 26 1018.2 1018.2 -
02/02:00am 13.1 6.9 7.8 70 2.6 NW 30 44 16 24 1018.2 1018.2 -
02/01:30am 12.8 7.7 7.5 70 2.6 NW 24 32 13 17 1018.2 1018.2 -
02/01:00am 12.5 7.0 7.4 71 2.5 NW 26 33 14 18 1018.7 1018.7 -
02/12:30am 12.6 6.7 7.5 71 2.5 NW 28 39 15 21 1019.2 1019.2 -
02/12:00am 12.7 6.1 7.6 71 2.5 NW 32 44 17 24 1019.7 1019.7 -
 
Date/Time
EST
Temp
°C
App
Temp
°C
Dew
Point
Rel
Hum
%
Delta-T
°C
Wind Press
QNH
hPa
Press
MSL
hPa
Rain
since 9 am
mm
Dir
 
Spd
km/h
Gust
km/h
Spd
kts
Gust
kts
01/11:30pm 12.9 6.3 7.6 70 2.6 NW 32 39 17 21 1019.9 1019.9 -
01/11:00pm 12.7 6.4 7.4 70 2.6 NW 30 39 16 21 1020.3 1020.3 -
01/10:30pm 11.7 6.5 7.2 74 2.2 NW 24 35 13 19 1020.6 1020.6 -
01/10:00pm 11.3 5.7 7.2 76 2.0 NNW 26 32 14 17 1020.9 1020.9 -
01/09:30pm 10.9 4.8 6.8 76 1.9 NNW 28 39 15 21 1021.0 1021.0 -
01/09:00pm 11.2 5.1 6.7 74 2.1 NNW 28 35 15 19 1021.3 1021.3 0.0
01/08:30pm 12.1 5.2 6.6 69 2.6 NW 32 43 17 23 1021.2 1021.2 -
01/08:00pm 11.9 5.2 5.8 66 2.8 NW 30 43 16 23 1021.4 1021.4 -
01/07:30pm 11.9 5.6 5.5 65 3.0 NW 28 35 15 19 1021.4 1021.4 -
01/07:00pm 11.3 6.4 5.2 66 2.8 NW 20 26 11 14 1021.5 1021.5 -
01/06:30pm 11.1 6.7 4.6 64 2.9 NW 17 24 9 13 1021.8 1021.8 -
01/06:00pm 11.2 7.1 4.4 63 3.0 NNW 15 20 8 11 1021.8 1021.8 -
01/05:30pm 12.2 7.4 4.4 59 3.5 NNW 19 24 10 13 1021.8 1021.8 -
01/05:00pm 12.8 8.0 4.5 57 3.8 NNW 19 28 10 15 1022.0 1022.0 -
01/04:30pm 13.6 7.4 4.5 54 4.2 NW 26 33 14 18 1022.2 1022.2 -
01/04:00pm 13.8 8.8 4.7 54 4.2 NW 20 30 11 16 1022.4 1022.4 -
01/03:30pm 14.0 8.3 5.1 55 4.2 NW 24 33 13 18 1022.5 1022.5 -
01/03:00pm 14.1 8.5 5.5 56 4.0 NW 24 35 13 19 1022.8 1022.8 0.0
01/02:30pm - - - - - - - - - - - - -
01/02:00pm - - - - - - - - - - - - -
01/01:30pm 14.3 8.5 4.3 51 4.6 NW 24 32 13 17 1023.9 1023.9 0.0
01/01:00pm 14.7 8.4 3.8 48 5.0 NW 26 32 14 17 1024.3 1024.3 0.0
01/12:30pm 14.4 6.9 3.5 48 4.9 NW 32 39 17 21 1024.7 1024.7 0.0
01/12:00pm 14.5 8.1 3.3 47 5.0 NW 26 39 14 21 1025.2 1025.2 0.0
01/11:30am 14.1 7.5 4.1 51 4.6 NW 28 39 15 21 1025.8 1025.8 0.0
01/11:00am 13.4 7.5 3.8 52 4.3 NNW 24 32 13 17 1026.5 1026.5 0.0
01/10:30am 12.9 7.5 4.6 57 3.8 NNW 22 30 12 16 1027.0 1027.0 0.0
01/10:00am 11.3 6.4 4.1 61 3.2 NNW 19 22 10 12 1027.4 1027.4 0.0
01/09:30am 10.8 5.9 4.0 63 3.0 NW 19 22 10 12 1027.7 1027.7 0.0
01/09:00am 10.4 6.3 4.3 66 2.7 NNW 15 17 8 9 1027.5 1027.5 0.0
01/08:30am 9.5 5.4 4.3 70 2.3 NNW 15 17 8 9 1027.6 1027.6 0.0
01/08:00am 9.3 5.6 4.3 71 2.2 NW 13 17 7 9 1027.6 1027.6 0.0
01/07:30am 9.2 5.6 4.8 74 2.0 NW 13 17 7 9 1027.4 1027.4 0.0
01/07:00am 9.3 5.9 5.9 79 1.5 NW 13 15 7 8 1027.3 1027.3 0.0
01/06:30am 9.1 5.9 6.7 85 1.1 NW 13 15 7 8 1027.2 1027.2 0.0
01/06:00am 8.5 5.7 7.0 90 0.7 WNW 11 13 6 7 1027.1 1027.1 0.0
01/05:30am 8.9 6.3 7.7 92 0.6 WNW 11 11 6 6 1027.1 1027.1 0.0
01/05:00am 9.0 7.8 7.9 93 0.5 WNW 4 9 2 5 1027.3 1027.3 0.0
01/04:30am 8.9 8.4 7.8 93 0.5 CALM 0 0 0 0 1027.4 1027.4 0.0
01/04:00am 8.7 8.1 7.6 93 0.5 CALM 0 0 0 0 1027.3 1027.3 0.0
01/03:30am 8.6 6.9 7.5 93 0.5 NW 6 7 3 4 1027.4 1027.4 0.0
01/03:00am 9.1 7.3 8.0 93 0.5 WNW 7 9 4 5 1027.6 1027.6 0.0
01/02:30am 9.1 6.6 8.2 94 0.4 WNW 11 13 6 7 1027.6 1027.6 0.0
01/02:00am 9.2 6.3 8.3 94 0.4 WNW 13 15 7 8 1027.7 1027.7 0.0
01/01:30am 9.2 5.6 8.4 95 0.4 W 17 17 9 9 1027.9 1027.9 0.0
01/01:00am 9.3 5.7 8.4 94 0.4 W 17 22 9 12 1028.1 1028.1 0.0
01/12:30am 9.1 5.5 8.3 95 0.4 WNW 17 20 9 11 1028.4 1028.4 0.0
01/12:00am 8.8 5.8 7.9 94 0.4 WNW 13 17 7 9 1028.4 1028.4 0.0
 
Date/Time
EST
Temp
°C
App
Temp
°C
Dew
Point
Rel
Hum
%
Delta-T
°C
Wind Press
QNH
hPa
Press
MSL
hPa
Rain
since 9 am
mm
Dir
 
Spd
km/h
Gust
km/h
Spd
kts
Gust
kts
30/11:30pm 9.0 6.0 7.8 92 0.6 WNW 13 17 7 9 1028.3 1028.3 0.0
30/11:00pm 9.2 5.8 7.8 91 0.7 WNW 15 19 8 10 1028.6 1028.6 0.0
30/10:30pm 9.4 5.7 7.8 90 0.8 WNW 17 20 9 11 1028.6 1028.6 0.0
30/10:00pm 9.5 5.8 8.1 91 0.7 WNW 17 19 9 10 1028.6 1028.6 0.0
30/09:30pm 9.2 5.3 7.3 88 0.9 WNW 17 20 9 11 1028.6 1028.6 0.0
30/09:00pm 9.5 5.9 6.8 83 1.3 WNW 15 17 8 9 1028.4 1028.4 0.0
30/08:30pm 10.5 7.0 7.4 81 1.5 WNW 15 19 8 10 1028.4 1028.4 0.0
30/08:00pm 10.7 7.2 7.4 80 1.6 W 15 19 8 10 1028.4 1028.4 0.0
30/07:30pm 11.0 8.0 7.5 79 1.7 W 13 15 7 8 1028.2 1028.2 0.0
30/07:00pm 11.4 8.4 7.5 77 1.9 W 13 22 7 12 1028.1 1028.1 0.0
30/06:30pm 11.7 8.6 7.4 75 2.1 W 13 17 7 9 1027.9 1027.9 0.0
30/06:00pm 11.9 8.0 7.0 72 2.3 WSW 17 20 9 11 1027.7 1027.7 0.0
30/05:30pm 12.1 8.8 6.6 69 2.6 W 13 19 7 10 1027.5 1027.5 0.0
30/05:00pm 12.7 9.0 6.3 65 3.0 WSW 15 19 8 10 1027.4 1027.4 0.0
30/04:30pm 12.9 10.0 6.3 64 3.1 W 11 15 6 8 1027.3 1027.3 0.0
30/04:00pm 13.3 9.9 5.9 61 3.5 W 13 17 7 9 1027.1 1027.1 0.0
30/03:30pm 13.6 10.8 5.0 56 4.0 WSW 9 13 5 7 1027.0 1027.0 0.0
30/03:00pm 13.9 10.6 4.8 54 4.2 W 11 17 6 9 1026.9 1026.9 0.0
30/02:30pm 14.1 11.2 4.9 54 4.3 W 9 15 5 8 1026.9 1026.9 0.0
30/02:00pm 14.1 11.2 4.7 53 4.3 W 9 13 5 7 1027.0 1027.0 0.0
30/01:30pm 13.6 10.8 5.0 56 4.0 W 9 15 5 8 1027.2 1027.2 0.0
30/01:00pm 13.0 11.0 4.4 56 3.9 WSW 4 11 2 6 1027.5 1027.5 0.0
30/12:30pm 13.5 10.6 4.9 56 4.0 NE 9 11 5 6 1027.8 1027.8 0.0
30/12:00pm 13.8 11.6 5.4 57 3.9 N 6 9 3 5 1028.3 1028.3 0.0
30/11:30am 13.4 12.2 4.8 56 4.0 CALM 0 0 0 0 1028.7 1028.7 0.0
30/11:00am 12.7 9.9 5.1 60 3.5 N 9 13 5 7 1029.1 1029.1 0.0
30/10:30am 12.2 10.0 6.3 67 2.8 W 7 9 4 5 1029.3 1029.3 0.0
30/10:00am 11.1 8.9 6.0 71 2.4 WNW 7 9 4 5 1029.4 1029.4 0.0
30/09:30am 9.1 6.3 5.1 76 1.8 W 9 13 5 7 1029.3 1029.3 0.0
30/09:00am 8.5 6.0 4.9 78 1.6 W 7 9 4 5 1029.3 1029.3 0.0
30/08:30am 8.8 5.1 4.6 75 1.9 NNW 13 15 7 8 1028.9 1028.9 0.0
30/08:00am 7.7 4.8 4.7 81 1.3 WNW 9 11 5 6 1028.8 1028.8 0.0
30/07:30am 8.2 5.7 4.6 78 1.6 W 7 11 4 6 1028.8 1028.8 0.0
30/07:00am 8.3 5.1 5.1 80 1.4 NW 11 13 6 7 1028.6 1028.6 0.0
30/06:30am 8.0 4.5 5.3 83 1.2 NNW 13 17 7 9 1028.5 1028.5 0.0
30/06:00am 7.8 4.7 5.6 86 1.0 NNW 11 13 6 7 1028.4 1028.4 0.0
30/05:30am 8.0 5.3 5.5 84 1.1 NW 9 13 5 7 1028.4 1028.4 0.0
30/05:00am 8.1 5.0 5.7 85 1.1 NW 11 13 6 7 1028.2 1028.2 0.0
30/04:30am 8.0 5.3 5.8 86 1.0 NW 9 11 5 6 1028.4 1028.4 0.0
30/04:00am 8.2 5.6 6.0 86 1.0 NW 9 11 5 6 1028.5 1028.5 0.0
30/03:30am 7.8 5.4 5.4 85 1.1 WNW 7 9 4 5 1028.6 1028.6 0.0
30/03:00am 7.6 4.8 5.1 84 1.1 NW 9 11 5 6 1028.5 1028.5 0.0
30/02:30am 7.6 4.4 4.9 83 1.2 NW 11 13 6 7 1028.4 1028.4 0.0
30/02:00am 8.1 5.0 5.4 83 1.2 NNW 11 15 6 8 1028.6 1028.6 0.0
30/01:30am 8.1 5.8 5.6 84 1.1 NNW 7 9 4 5 1028.9 1028.9 0.0
30/01:00am 8.1 5.4 5.6 84 1.1 NW 9 11 5 6 1029.1 1029.1 0.0
30/12:30am 8.5 5.8 5.8 83 1.2 NNW 9 13 5 7 1029.4 1029.4 0.0
30/12:00am 8.7 6.4 5.8 82 1.3 NNW 7 9 4 5 1029.8 1029.8 0.0
 
Date/Time
EST
Temp
°C
App
Temp
°C
Dew
Point
Rel
Hum
%
Delta-T
°C
Wind Press
QNH
hPa
Press
MSL
hPa
Rain
since 9 am
mm
Dir
 
Spd
km/h
Gust
km/h
Spd
kts
Gust
kts
29/11:30pm 9.1 6.1 6.2 82 1.3 NNW 11 13 6 7 1029.8 1029.8 0.0
29/11:00pm 9.5 6.9 6.2 80 1.5 NNW 9 11 5 6 1029.8 1029.8 0.0

Other Formats:

Comma delimited format used in spreadsheet applications
http://www.bom.gov.au/fwo/IDV60801/IDV60801.94854.axf

JavaScript Object Notation format (JSON) in row-major order
http://www.bom.gov.au/fwo/IDV60801/IDV60801.94854.json